Terminal Aerodrome Forecast
Issued by NWS Jackson, MS

Home | Current Version | Previous Version | Text Only | Print | Product List | Glossary On
Versions: 1 2 3 4 5 6 7 8 9 10 11 12
000
FTUS44 KJAN 291120
TAFJAN
TAF
KJAN 291120Z 2912/3012 13009KT P6SM OVC020
     FM291500 15012KT P6SM SCT025 BKN050
     FM291700 18014G20KT P6SM SCT050 BKN250
     FM300100 16009KT P6SM SCT015 BKN100
     FM300800 19006KT P6SM OVC015=

USA.gov is the U.S. government's official web portal to all federal, state and local government web resources and services.